Aérodrome :
LOGIN :

S'inscrire | Disclaimer

   EN    FR    IT 

 










Légende :    VFR   VFR Marginal   IFR   IFR Intensif   IFR Très Intensif
Visi : 
Plafond : 
>= 8 km
>= 3000ft
5 à 8 km
1000 à 3000 ft
1500m à 5 km
500 à 1000 ft
800 à 1500m
200 à 500 ft
< 800m
< 200 ft
Symboles :   Orages  Brouillard  Fortes neiges  Fortes précipitations  Vent > 20 kt
SIGMETs :   Divers  Orages  Givrage  Turbulence  Onde Orograph.  Cendres Volcan.






- Altitude de l'aérodrome : 72 ft
- Code IATA : UDE


EHVK - Volkel Airbase

DERNIER METAR :
  • 191655Z AUTO 19006KT 170V230 9999 OVC130 12/10 Q1004 BLU

METARs EXPIRÉS :
  • 191625Z AUTO 19006KT 160V230 9999 OVC130 13/10 Q1004 BLU
  • 191555Z AUTO 20006KT 160V240 9999 OVC130 13/11 Q1004 BLU
  • 191525Z AUTO 19007KT 160V240 9999 OVC100 13/11 Q1004 BLU
  • 191455Z AUTO 19008KT 150V250 9999 OVC100 13/11 Q1003 BLU
  • 191425Z AUTO 19007KT 160V230 9999 OVC120 14/10 Q1003 BLU

TAF TAF EHVK
Valide du 19 à 17h jusqu'au 20 à 05h UTC


191655Z 1917/2005 20006KT CAVOK
BECMG 2001/2004 VRB03KT 4500 BR MIFG
PROB30
TEMPO 2002/2005 0800 BCFG



MET'MAP, la Météo Aéronautique d'un coup d'oeil ! - Copyright ORBIFLY Décembre 2007 - Disclaimer

ORBIFLY MET'MAP TEAM :

Programmation & Développement : Alexandra Zaïnal
Conception & Développement : Baudouin d'Aumeries
Co-Programmation & Développement : Marc-Olivier Méhu
Soutien technique & logistique : Manuel Goepfert

Contact : metmap@orbifly.com




SOURCES & CREDITS :

   NOAA